Startpagina
METAR-TAF:

METAR-TAF

Vliegvelden :

Aeroporto Internacional de Foz do Iguaçu

Foz do Iguaçu, Paraná, Brazilië

breedte: 25-31S, lengte: 054-35W, hoogte: 180 m

Actueel weer

Dit bericht is 21 minuten geleden gemaakt, om 13:00 UTC
Wind 8 kt uit het oostzuidoosten
Temperatuur 16°C
Vochtigheid 77%
Druk 1019 hPa
Zicht 10 km of meer
geen wolken onder 1500 m en geen cumulonimbus

METAR: SBFI 301300Z 11008KT CAVOK 16/12 Q1019

Tijdstip: 10:21 (13:21 UTC)

Verwachting

Dit bericht is 4 uur en het 21 minuten geleden gemaakt, om 09:00 UTC
Verwachting geldig van 30 om 12 UTC tot 31 om 12 UTC
Wind 5 kt uit het noordnoordoosten
Zicht 10 km of meer
geen wolken onder 1500 m en geen cumulonimbus
Wijzigt naar
van 30 om 22 UTC tot 30 om 24 UTC
Wind 4 kt uit het zuidoosten
Kans 30% :
Tijdelijke
van 31 om 08 UTC tot 31 om 11 UTC
Zicht: 0500 m
Verspreide wolken op 400 ft
mist

TAF: SBFI 300900Z 3012/3112 03005KT CAVOK TX24/3018Z TN11/3108Z BECMG 3022/3024 14004KT PROB30 TEMPO 3108/3111 0500 FG SCT004 RMK PEQ

Waarnemingen en weersverwachtingen van meer dan 4000 vliegvelden (METAR en TAF).

De beschikbare stations zijn de gele en rode punten op de kaart.

Ga met uw muis naar het station om de naam te zien.

Klik dan om waarnemingen en weersverwachtingen te zien.

kaart wijzigen: klik op de groene knoppen met een zwart kruis om in te zoomen, op de groene knop met een streepje om uit te zoomen of op de groene pijlen voor aangrenzende kaarten.


METAR-TAF: